Time;durP1;ratioP1;P1;durP2;ratioP2;P2;SDS_P1;SDS_P2;PMS_P1;PMS_P2;Temp;Humidity;BMP_temperature;BMP_pressure;BME280_temperature;BME280_humidity;BME280_pressure;Samples;Min_cycle;Max_cycle;Signal;HPM_P1;HPM_P2
2022/05/26 00:01:16;;;;;;;1.45;0.80;;;;;;;14.07;56.91;97123.78;4970790;29;20130;-82
2022/05/26 00:03:46;;;;;;;4.07;0.82;;;;;;;14.07;57.13;97130.84;4969541;28;20496;-78
2022/05/26 00:06:15;;;;;;;1.65;0.80;;;;;;;14.07;57.08;97125.59;4968281;29;20047;-81
2022/05/26 00:08:45;;;;;;;1.30;0.60;;;;;;;14.08;57.14;97127.22;4970329;29;20114;-81
2022/05/26 00:11:15;;;;;;;1.52;0.70;;;;;;;14.09;57.12;97126.22;4970237;28;20123;-80
2022/05/26 00:13:43;;;;;;;1.83;0.60;;;;;;;14.10;57.11;97131.28;4969023;28;20051;-82
2022/05/26 00:16:12;;;;;;;3.80;0.80;;;;;;;14.10;56.87;97130.47;4972424;29;20051;-83
2022/05/26 00:18:40;;;;;;;2.33;0.90;;;;;;;14.10;56.93;97130.47;4977096;28;20078;-81
2022/05/26 00:21:07;;;;;;;2.30;0.70;;;;;;;14.09;56.88;97134.91;4969449;28;20081;-83
2022/05/26 00:23:35;;;;;;;4.60;1.00;;;;;;;14.08;56.90;97135.09;4967986;28;20054;-81
2022/05/26 00:26:04;;;;;;;0.90;0.73;;;;;;;14.09;57.03;97139.34;4967736;29;20119;-78
2022/05/26 00:28:32;;;;;;;2.33;0.60;;;;;;;14.11;56.90;97138.16;4968450;29;20049;-78
2022/05/26 00:31:00;;;;;;;1.83;0.82;;;;;;;14.08;56.88;97137.72;4967032;28;20419;-80
2022/05/26 00:33:28;;;;;;;0.90;0.75;;;;;;;14.05;56.84;97133.66;4967475;28;20051;-80
2022/05/26 00:35:55;;;;;;;0.75;0.40;;;;;;;14.03;56.97;97130.41;4966708;28;20051;-79
2022/05/26 00:38:23;;;;;;;1.25;0.70;;;;;;;14.00;57.10;97136.84;4967566;29;20115;-81
2022/05/26 00:40:50;;;;;;;0.88;0.68;;;;;;;13.98;56.82;97138.03;4967665;28;20061;-84
2022/05/26 00:43:20;;;;;;;1.30;0.70;;;;;;;13.94;57.18;97142.84;4967244;28;20055;-82
2022/05/26 00:45:55;;;;;;;1.70;1.20;;;;;;;13.94;57.41;97136.81;4966805;29;20055;-78
2022/05/26 00:48:27;;;;;;;4.38;1.23;;;;;;;13.95;57.07;97139.25;4966976;29;20055;-78
2022/05/26 00:50:57;;;;;;;2.42;0.80;;;;;;;13.95;57.19;97144.50;4966345;29;20562;-81
2022/05/26 00:53:34;;;;;;;2.70;0.68;;;;;;;13.88;57.53;97133.13;4965948;28;20067;-80
2022/05/26 00:56:09;;;;;;;4.03;0.88;;;;;;;13.83;57.94;97130.25;4969345;29;20053;-79
2022/05/26 00:58:45;;;;;;;2.13;0.43;;;;;;;13.83;58.52;97135.50;4971247;29;20061;-81
2022/05/26 01:01:12;;;;;;;1.55;0.60;;;;;;;13.88;57.89;97140.97;4970389;29;20119;-80
2022/05/26 01:03:43;;;;;;;0.88;0.70;;;;;;;13.92;57.92;97136.97;4969536;28;20122;-82
2022/05/26 01:06:14;;;;;;;2.28;0.90;;;;;;;13.97;58.40;97142.50;4966786;29;20504;-84
2022/05/26 01:08:50;;;;;;;2.80;0.88;;;;;;;14.00;57.83;97133.44;4967187;29;20047;-78
2022/05/26 01:11:18;;;;;;;1.50;0.73;;;;;;;13.96;57.65;97143.47;4965857;29;20053;-82
2022/05/26 01:13:50;;;;;;;3.88;0.90;;;;;;;13.93;57.97;97138.63;4965211;28;20434;-79
2022/05/26 01:16:28;;;;;;;0.88;0.60;;;;;;;13.91;58.30;97131.94;4944905;29;20578;-78
2022/05/26 01:19:11;;;;;;;1.42;0.80;;;;;;;13.92;58.36;97146.66;4945672;29;20138;-84
2022/05/26 01:21:46;;;;;;;1.20;0.60;;;;;;;13.96;58.36;97132.97;4945286;29;20047;-78
2022/05/26 01:24:49;;;;;;;1.13;0.75;;;;;;;13.97;58.18;97132.00;4945843;29;20051;-77
2022/05/26 01:27:28;;;;;;;1.00;1.00;;;;;;;13.93;58.28;97125.50;4944464;29;20052;-78
2022/05/26 01:30:10;;;;;;;1.85;0.70;;;;;;;13.92;58.36;97123.06;4944993;29;20129;-82
2022/05/26 01:32:54;;;;;;;1.70;0.77;;;;;;;13.88;58.48;97127.06;4944181;29;20508;-81
2022/05/26 01:35:30;;;;;;;2.20;0.68;;;;;;;13.81;58.62;97134.88;4944529;29;20115;-78
2022/05/26 01:38:09;;;;;;;0.85;0.80;;;;;;;13.77;58.56;97133.63;4944004;29;20044;-80
2022/05/26 01:40:46;;;;;;;2.30;1.17;;;;;;;13.75;58.66;97133.00;4944230;29;20073;-78
2022/05/26 01:43:20;;;;;;;2.50;0.80;;;;;;;13.71;58.28;97129.13;4943888;29;20135;-78
2022/05/26 01:45:57;;;;;;;3.78;1.35;;;;;;;13.68;58.67;97121.66;4941916;29;20134;-79
2022/05/26 01:48:30;;;;;;;0.82;0.70;;;;;;;13.66;58.62;97128.91;4942188;29;20051;-78
2022/05/26 01:51:02;;;;;;;1.70;1.10;;;;;;;13.66;58.82;97128.91;4941448;29;20479;-78
2022/05/26 01:53:38;;;;;;;3.00;1.15;;;;;;;13.66;58.92;97129.69;4947165;29;20048;-81
2022/05/26 01:56:21;;;;;;;3.33;0.90;;;;;;;13.70;60.03;97130.16;4951449;29;20567;-77
2022/05/26 01:58:54;;;;;;;1.55;0.95;;;;;;;13.75;58.99;97135.63;4952113;29;20052;-79
2022/05/26 02:01:27;;;;;;;1.08;0.88;;;;;;;13.79;58.89;97135.06;4951890;29;20119;-79
2022/05/26 02:03:58;;;;;;;2.25;1.17;;;;;;;13.83;58.99;97135.50;4949817;29;20084;-78
2022/05/26 02:06:31;;;;;;;1.80;0.90;;;;;;;13.86;58.89;97135.13;4951602;29;20059;-79
2022/05/26 02:09:04;;;;;;;3.28;1.40;;;;;;;13.87;58.96;97130.69;4952496;29;20130;-79
2022/05/26 02:11:33;;;;;;;1.45;1.10;;;;;;;13.85;58.99;97128.25;4951717;29;20515;-78
2022/05/26 02:14:07;;;;;;;4.03;1.13;;;;;;;13.84;59.06;97125.81;4950317;29;20043;-79
2022/05/26 02:16:41;;;;;;;1.52;1.42;;;;;;;13.79;59.20;97129.00;4951584;29;20115;-80
2022/05/26 02:19:15;;;;;;;3.92;1.30;;;;;;;13.76;59.39;97138.06;4955675;29;20055;-78
2022/05/26 02:21:47;;;;;;;1.05;0.95;;;;;;;13.74;59.34;97136.63;4954799;29;20047;-80
2022/05/26 02:24:20;;;;;;;1.80;1.20;;;;;;;13.74;59.19;97147.13;4953104;29;20138;-79
2022/05/26 02:26:48;;;;;;;2.63;1.05;;;;;;;13.74;59.21;97134.81;4953009;29;20119;-80
2022/05/26 02:32:04;;;;;;;2.47;1.15;;;;;;;13.65;59.34;97143.81;4951715;29;20119;-76
2022/05/26 02:34:34;;;;;;;2.13;1.00;;;;;;;13.62;59.64;97143.38;4951524;29;20071;-80
2022/05/26 02:37:03;;;;;;;0.82;0.82;;;;;;;13.62;59.54;97138.13;4951093;29;20054;-79
2022/05/26 02:39:30;;;;;;;4.07;0.95;;;;;;;13.59;59.72;97134.88;4951211;29;20067;-79
2022/05/26 02:41:58;;;;;;;1.35;1.05;;;;;;;13.59;59.59;97134.88;4950791;29;20066;-81
2022/05/26 02:44:29;;;;;;;2.15;1.27;;;;;;;13.56;59.75;97132.66;4950732;29;20063;-79
2022/05/26 02:47:08;;;;;;;0.82;0.80;;;;;;;13.60;62.32;97133.91;4951784;29;20044;-82
2022/05/26 02:49:46;;;;;;;1.15;1.00;;;;;;;13.69;61.55;97129.34;4952885;29;20115;-88
2022/05/26 02:52:24;;;;;;;2.85;1.10;;;;;;;13.68;60.09;97134.75;4953824;29;20031;-81
2022/05/26 02:55:03;;;;;;;2.83;1.23;;;;;;;13.66;60.54;97134.13;4954012;29;20071;-84
2022/05/26 02:57:38;;;;;;;1.10;1.00;;;;;;;13.68;60.28;97132.13;4953818;29;20592;-81
2022/05/26 03:00:10;;;;;;;3.20;0.98;;;;;;;13.66;59.58;97134.13;4953111;29;20082;-82
2022/05/26 03:02:45;;;;;;;2.93;1.03;;;;;;;13.58;59.67;97130.66;4952869;29;20107;-81
2022/05/26 03:05:19;;;;;;;1.15;1.00;;;;;;;13.48;59.92;97135.38;4951357;29;20062;-84
2022/05/26 03:07:51;;;;;;;2.25;1.15;;;;;;;13.38;60.11;97134.88;4949727;29;20126;-80
2022/05/26 03:10:23;;;;;;;1.25;0.98;;;;;;;13.32;60.23;97138.25;4951126;29;20048;-84
2022/05/26 03:12:50;;;;;;;3.90;0.90;;;;;;;13.26;60.31;97139.78;4950272;29;20115;-79
2022/05/26 03:15:18;;;;;;;2.13;0.90;;;;;;;13.24;60.42;97140.94;4950955;29;20587;-78
2022/05/26 03:17:45;;;;;;;1.00;0.90;;;;;;;13.22;60.44;97140.31;4949029;29;20055;-80
2022/05/26 03:20:15;;;;;;;2.42;0.95;;;;;;;13.22;61.96;97142.94;4950201;29;20524;-80
2022/05/26 03:22:42;;;;;;;1.73;0.93;;;;;;;13.23;62.04;97140.16;4950830;29;20514;-87
2022/05/26 03:25:10;;;;;;;2.38;1.20;;;;;;;13.27;62.44;97149.28;4949223;29;20067;-80
2022/05/26 03:27:38;;;;;;;1.70;1.15;;;;;;;13.31;61.53;97152.34;4946844;29;20075;-85
2022/05/26 03:30:08;;;;;;;2.35;1.00;;;;;;;13.36;61.78;97153.41;4948350;29;20079;-87
2022/05/26 03:32:36;;;;;;;1.10;1.00;;;;;;;13.42;61.34;97153.66;4948655;29;20048;-84
2022/05/26 03:40:50;;;;;;;0.90;0.90;;;;;;;13.49;60.66;97155.38;4949203;29;20043;-79
2022/05/26 03:43:19;;;;;;;1.15;0.95;;;;;;;13.44;60.58;97156.91;4948520;29;20473;-86
2022/05/26 03:45:47;;;;;;;2.83;1.33;;;;;;;13.41;60.78;97158.09;4947113;29;20052;-80
2022/05/26 03:48:15;;;;;;;1.55;1.33;;;;;;;13.42;60.78;97162.34;4947173;29;20052;-79
2022/05/26 03:50:43;;;;;;;1.48;1.13;;;;;;;13.44;60.57;97157.72;4950365;29;20079;-83
2022/05/26 03:53:12;;;;;;;3.10;1.65;;;;;;;13.47;60.52;97157.38;4953442;29;20060;-81
2022/05/26 03:55:40;;;;;;;2.83;1.08;;;;;;;13.45;60.51;97159.34;4953425;29;20138;-80
2022/05/26 03:58:07;;;;;;;2.55;1.48;;;;;;;13.42;60.44;97159.72;4952095;29;20058;-78
2022/05/26 04:00:35;;;;;;;1.95;1.27;;;;;;;13.40;60.44;97161.69;4951645;29;20063;-80
2022/05/26 04:03:03;;;;;;;2.45;0.93;;;;;;;13.37;60.57;97168.13;4951620;29;20111;-79
2022/05/26 04:05:31;;;;;;;2.90;1.17;;;;;;;13.34;60.62;97157.22;4950826;29;20071;-79
2022/05/26 04:07:59;;;;;;;9.20;1.65;;;;;;;13.29;60.70;97160.38;4949583;29;20066;-79
2022/05/26 04:10:28;;;;;;;4.47;1.13;;;;;;;13.25;60.79;97169.59;4949933;29;20051;-78
2022/05/26 04:12:56;;;;;;;2.00;1.05;;;;;;;13.23;61.15;97171.59;4948698;29;20504;-79
2022/05/26 04:15:24;;;;;;;3.58;1.20;;;;;;;13.22;60.97;97175.19;4948291;29;20062;-82
2022/05/26 04:17:52;;;;;;;2.13;1.10;;;;;;;13.24;61.19;97182.88;4946908;29;20120;-78
2022/05/26 04:20:21;;;;;;;1.83;1.25;;;;;;;13.24;61.10;97180.25;4947745;29;20139;-78
2022/05/26 04:22:50;;;;;;;1.40;1.30;;;;;;;13.25;61.12;97181.84;4945653;29;20134;-81
2022/05/26 04:25:20;;;;;;;1.10;1.00;;;;;;;13.26;61.27;97184.31;4945326;29;20127;-79
2022/05/26 04:27:49;;;;;;;0.98;0.63;;;;;;;13.31;61.71;97189.81;4944414;29;20058;-79
2022/05/26 04:30:17;;;;;;;3.40;1.13;;;;;;;13.36;61.19;97189.31;4944167;29;20111;-79
2022/05/26 04:32:44;;;;;;;2.25;1.20;;;;;;;13.41;61.44;97184.31;4944746;29;20138;-81
2022/05/26 04:35:12;;;;;;;1.45;1.15;;;;;;;13.48;61.33;97193.03;4944580;29;20052;-80
2022/05/26 04:37:41;;;;;;;1.83;1.02;;;;;;;13.54;61.20;97200.16;4943432;29;20055;-79
2022/05/26 04:40:11;;;;;;;0.95;0.85;;;;;;;13.58;61.22;97203.25;4943952;29;20047;-80
2022/05/26 04:42:40;;;;;;;2.60;1.10;;;;;;;13.58;61.19;97211.91;4943596;29;20123;-79
2022/05/26 04:45:12;;;;;;;2.45;1.20;;;;;;;13.59;61.40;97203.03;4944461;29;20134;-88
2022/05/26 04:47:39;;;;;;;2.55;1.10;;;;;;;13.62;61.17;97211.53;4943143;29;20058;-82
2022/05/26 04:50:09;;;;;;;1.38;1.27;;;;;;;13.62;61.37;97216.78;4948198;29;20111;-84
2022/05/26 04:52:37;;;;;;;1.92;1.05;;;;;;;13.64;61.08;97215.59;4949335;29;20062;-83
2022/05/26 04:55:06;;;;;;;1.15;0.93;;;;;;;13.66;60.73;97218.84;4949636;29;20052;-86
2022/05/26 04:57:34;;;;;;;1.10;1.00;;;;;;;13.70;60.47;97211.41;4947663;29;20056;-80
2022/05/26 05:00:02;;;;;;;1.55;0.75;;;;;;;13.73;60.28;97214.50;4948477;29;20051;-80
2022/05/26 05:02:32;;;;;;;2.58;0.95;;;;;;;13.83;62.44;97216.00;4948277;29;20143;-84
2022/05/26 05:05:00;;;;;;;2.42;0.80;;;;;;;13.90;60.83;97212.41;4948830;29;20119;-82
2022/05/26 05:07:27;;;;;;;1.90;1.00;;;;;;;13.96;60.52;97219.53;4946505;29;20086;-79
2022/05/26 05:09:55;;;;;;;0.82;0.80;;;;;;;14.02;61.56;97216.16;4948234;29;20059;-79
2022/05/26 05:12:26;;;;;;;3.38;0.90;;;;;;;14.11;60.79;97227.34;4950297;29;20459;-82
2022/05/26 05:14:56;;;;;;;2.40;0.90;;;;;;;14.16;60.37;97219.72;4948556;29;20107;-85
2022/05/26 05:17:26;;;;;;;2.13;0.90;;;;;;;14.25;60.20;97233.50;4949879;29;20143;-78
2022/05/26 05:19:55;;;;;;;1.02;0.80;;;;;;;14.33;64.25;97227.31;4950908;29;20082;-81
2022/05/26 05:22:26;;;;;;;2.13;1.02;;;;;;;14.40;62.86;97231.59;4950879;29;20063;-81
2022/05/26 05:24:59;;;;;;;5.80;1.00;;;;;;;14.47;62.52;97230.84;4950276;29;20048;-81
2022/05/26 05:27:34;;;;;;;1.08;1.00;;;;;;;14.51;60.42;97238.16;4949870;29;20072;-79
2022/05/26 05:30:05;;;;;;;1.80;0.90;;;;;;;14.56;59.72;97237.59;4948543;29;20082;-79
2022/05/26 05:32:38;;;;;;;1.52;0.63;;;;;;;14.62;60.97;97240.28;4946615;29;20048;-80
2022/05/26 05:35:12;;;;;;;1.73;0.82;;;;;;;14.68;59.64;97238.72;4948263;29;20062;-79
2022/05/26 05:37:40;;;;;;;2.25;0.55;;;;;;;14.75;60.85;97244.00;4946222;29;20051;-79
2022/05/26 05:40:08;;;;;;;2.28;0.88;;;;;;;14.78;59.33;97244.44;4948327;29;20138;-79
2022/05/26 05:42:36;;;;;;;1.17;0.65;;;;;;;14.84;58.53;97254.16;4950158;29;20523;-79
2022/05/26 05:45:04;;;;;;;1.27;0.70;;;;;;;14.89;58.35;97256.22;4953989;29;20052;-82
2022/05/26 05:47:32;;;;;;;1.77;0.60;;;;;;;14.94;58.75;97253.84;4956091;29;20115;-83
2022/05/26 05:49:59;;;;;;;1.75;0.40;;;;;;;14.99;57.91;97264.56;4955752;29;20044;-84
2022/05/26 05:52:29;;;;;;;1.95;0.50;;;;;;;15.06;58.74;97266.41;4955770;29;20055;-84
2022/05/26 05:54:57;;;;;;;0.70;0.50;;;;;;;15.11;58.31;97269.28;4955390;29;20067;-87
2022/05/26 05:57:25;;;;;;;1.13;0.60;;;;;;;15.16;58.67;97272.16;4953531;29;20058;-85
2022/05/26 05:59:53;;;;;;;0.85;0.50;;;;;;;15.21;57.67;97269.75;4955682;29;20083;-85
2022/05/26 06:02:21;;;;;;;0.85;0.47;;;;;;;15.25;57.92;97269.16;4949371;29;20416;-87
2022/05/26 06:05:06;;;;;;;2.92;0.60;;;;;;;15.30;57.02;97273.81;4951918;29;20040;-81
2022/05/26 06:07:38;;;;;;;1.60;0.30;;;;;;;15.32;56.41;97277.06;4949742;29;20048;-82
2022/05/26 06:10:06;;;;;;;2.03;0.85;;;;;;;15.36;57.07;97274.88;4953319;29;20137;-78
2022/05/26 06:12:34;;;;;;;4.22;0.52;;;;;;;15.40;57.17;97270.84;4953420;29;20392;-81
2022/05/26 06:15:02;;;;;;;0.57;0.30;;;;;;;15.45;56.89;97271.06;4950700;29;20048;-85
2022/05/26 06:17:29;;;;;;;2.83;0.60;;;;;;;15.51;56.71;97277.38;4945262;29;20052;-86
2022/05/26 06:19:57;;;;;;;0.65;0.40;;;;;;;15.55;56.48;97281.22;4946163;29;20431;-82
2022/05/26 06:22:24;;;;;;;1.10;0.60;;;;;;;15.60;55.84;97278.81;4947774;29;20056;-81
2022/05/26 06:24:53;;;;;;;2.45;0.60;;;;;;;15.64;56.77;97286.09;4953251;29;20054;-84
2022/05/26 06:30:11;;;;;;;0.40;0.40;;;;;;;15.75;55.84;97278.69;4948703;29;20059;-85
2022/05/26 06:38:18;;;;;;;0.75;0.50;;;;;;;15.90;54.94;97284.59;4955789;29;20055;-80
2022/05/26 06:40:47;;;;;;;3.28;1.33;;;;;;;15.95;54.42;97292.72;4955036;29;20058;-80
2022/05/26 06:43:15;;;;;;;0.88;0.47;;;;;;;16.01;54.72;97291.91;4936747;29;20120;-81
2022/05/26 06:45:46;;;;;;;1.58;0.50;;;;;;;16.07;54.93;97295.59;4942957;29;20115;-80
2022/05/26 06:48:15;;;;;;;1.20;0.50;;;;;;;16.13;54.69;97302.66;4948284;29;20048;-79
2022/05/26 06:50:43;;;;;;;2.22;0.47;;;;;;;16.19;55.24;97303.69;4941431;29;20067;-81
2022/05/26 06:53:11;;;;;;;2.42;0.73;;;;;;;16.24;54.87;97302.06;4940541;29;20062;-82
2022/05/26 06:55:39;;;;;;;1.25;0.50;;;;;;;16.31;55.32;97307.38;4941978;29;20134;-77
2022/05/26 06:58:07;;;;;;;4.10;0.85;;;;;;;16.38;52.95;97307.38;4966245;29;20111;-82
2022/05/26 07:00:35;;;;;;;0.68;0.38;;;;;;;16.42;53.29;97308.56;4954068;29;20423;-83
2022/05/26 07:03:03;;;;;;;1.17;0.50;;;;;;;16.50;53.77;97307.56;4951698;29;20055;-80
2022/05/26 07:05:30;;;;;;;2.38;0.60;;;;;;;16.56;53.19;97307.56;4950513;29;20055;-81
2022/05/26 07:07:58;;;;;;;2.40;0.43;;;;;;;16.61;52.91;97306.97;4951506;29;20417;-79
2022/05/26 07:10:25;;;;;;;1.92;0.50;;;;;;;16.64;53.04;97315.28;4950392;29;20502;-78
2022/05/26 07:12:53;;;;;;;0.55;0.50;;;;;;;16.67;52.71;97316.69;4953110;29;20111;-79
2022/05/26 07:15:22;;;;;;;0.60;0.50;;;;;;;16.71;52.06;97320.56;4952253;29;20548;-77
2022/05/26 07:17:50;;;;;;;0.60;0.50;;;;;;;16.76;52.51;97312.84;4948233;29;20060;-77
2022/05/26 07:20:18;;;;;;;0.70;0.40;;;;;;;16.83;52.79;97324.22;4943629;29;20538;-76
2022/05/26 07:22:45;;;;;;;0.45;0.40;;;;;;;16.88;52.78;97327.06;4944133;29;20051;-77
2022/05/26 07:25:14;;;;;;;1.65;0.85;;;;;;;16.95;52.09;97334.16;4946615;29;20055;-78
2022/05/26 07:27:42;;;;;;;0.50;0.40;;;;;;;17.00;51.62;97339.63;4934899;29;20258;-79
2022/05/26 07:30:11;;;;;;;1.35;0.50;;;;;;;17.02;52.08;97327.03;4941924;29;20131;-77
2022/05/26 07:32:40;;;;;;;1.42;0.40;;;;;;;17.07;51.60;97330.66;4942005;29;20111;-79
2022/05/26 07:35:10;;;;;;;1.52;0.40;;;;;;;17.11;51.81;97330.28;4944107;29;20094;-80
2022/05/26 07:43:16;;;;;;;0.95;0.38;;;;;;;17.27;52.00;97330.66;4941383;29;20055;-79
2022/05/26 07:45:44;;;;;;;0.70;0.47;;;;;;;17.35;52.32;97337.53;4940473;29;20044;-77
2022/05/26 07:48:13;;;;;;;1.23;0.40;;;;;;;17.41;52.31;97334.06;4940671;29;20107;-78
2022/05/26 07:50:40;;;;;;;2.83;0.50;;;;;;;17.46;51.08;97336.09;4945467;29;20082;-78
2022/05/26 07:53:08;;;;;;;1.40;0.40;;;;;;;17.51;50.86;97333.63;4927080;29;20052;-79
2022/05/26 07:55:38;;;;;;;6.13;0.70;;;;;;;17.51;50.41;97338.91;4940009;29;20058;-90
2022/05/26 07:58:06;;;;;;;1.13;0.43;;;;;;;17.54;51.29;97343.78;4944594;29;20051;-79
2022/05/26 08:00:34;;;;;;;1.73;0.30;;;;;;;17.58;50.59;97349.44;4944085;29;20062;-79
2022/05/26 08:03:02;;;;;;;2.17;0.38;;;;;;;17.59;49.95;97349.22;4942823;29;20115;-79
2022/05/26 08:05:31;;;;;;;1.60;1.10;;;;;;;17.62;50.67;97356.75;4945881;29;20047;-82
2022/05/26 08:07:59;;;;;;;1.23;0.82;;;;;;;17.66;50.51;97355.28;4946434;29;20115;-85
2022/05/26 08:10:27;;;;;;;1.95;0.50;;;;;;;17.69;49.77;97357.53;4954583;29;20070;-79
2022/05/26 08:12:54;;;;;;;1.13;0.50;;;;;;;17.73;49.79;97365.00;4965995;28;20078;-78
2022/05/26 08:15:27;;;;;;;;;;;;;;;17.77;50.15;97356.47;4966603;29;20098;-78
2022/05/26 08:17:55;;;;;;;1.20;0.32;;;;;;;17.79;50.14;97356.28;4964905;29;20013;-77
2022/05/26 08:20:23;;;;;;;0.93;0.20;;;;;;;17.82;50.04;97363.78;4966457;29;20067;-79
2022/05/26 08:22:52;;;;;;;1.45;0.52;;;;;;;17.83;49.95;97357.50;4965634;28;20054;-80
2022/05/26 08:25:19;;;;;;;0.82;0.35;;;;;;;17.87;50.60;97366.63;4964578;29;20122;-78
2022/05/26 08:27:47;;;;;;;1.02;0.30;;;;;;;17.89;50.31;97368.03;4964526;29;20126;-77
2022/05/26 08:30:15;;;;;;;1.98;0.68;;;;;;;17.92;50.57;97362.31;4965893;29;20061;-78
2022/05/26 08:32:43;;;;;;;1.98;0.57;;;;;;;17.94;50.09;97364.75;4967228;28;20135;-77
2022/05/26 08:35:12;;;;;;;2.10;0.68;;;;;;;17.95;49.83;97363.75;4964981;29;20112;-79
2022/05/26 08:37:40;;;;;;;1.55;0.80;;;;;;;17.97;50.37;97366.16;4964468;29;20047;-78
2022/05/26 08:40:24;;;;;;;2.65;0.47;;;;;;;18.00;49.96;97374.50;4966677;29;20054;-78
2022/05/26 08:42:51;;;;;;;0.82;0.40;;;;;;;18.05;50.34;97377.31;4970294;28;20134;-78
2022/05/26 08:45:19;;;;;;;1.83;0.70;;;;;;;18.10;50.27;97374.84;4969975;29;20070;-81
2022/05/26 08:47:48;;;;;;;1.35;0.80;;;;;;;18.16;50.59;97380.31;4970711;28;20110;-78
2022/05/26 08:50:19;;;;;;;4.18;1.90;;;;;;;18.23;50.29;97373.16;4971042;29;20055;-80
2022/05/26 08:52:52;;;;;;;1.15;1.02;;;;;;;18.30;50.74;97373.91;4969800;28;20050;-79
2022/05/26 08:55:25;;;;;;;1.88;0.73;;;;;;;18.38;49.14;97375.50;4970998;29;20065;-79
2022/05/26 08:57:57;;;;;;;0.90;0.30;;;;;;;18.42;50.59;97372.22;4968446;29;20111;-78
2022/05/26 09:00:25;;;;;;;0.75;0.30;;;;;;;18.49;49.76;97369.56;4968691;29;20081;-78
2022/05/26 09:02:55;;;;;;;2.05;0.47;;;;;;;18.57;49.46;97379.06;4967718;28;20051;-80
2022/05/26 09:05:23;;;;;;;1.85;0.40;;;;;;;18.63;49.58;97379.03;4969083;28;20043;-78
2022/05/26 09:13:34;;;;;;;2.30;0.45;;;;;;;18.82;49.34;97379.91;4966525;28;20530;-78
2022/05/26 09:16:04;;;;;;;1.73;0.75;;;;;;;18.89;48.68;97383.34;4965892;29;20051;-77
2022/05/26 09:18:32;;;;;;;0.47;0.30;;;;;;;18.94;49.17;97386.13;4964978;29;20051;-78
2022/05/26 09:21:21;;;;;;;1.40;0.28;;;;;;;19.01;48.91;97385.28;4964726;29;20085;-77
2022/05/26 09:23:49;;;;;;;0.52;0.40;;;;;;;19.07;48.27;97384.41;4965413;28;20065;-77
2022/05/26 09:26:20;;;;;;;0.47;0.40;;;;;;;19.11;48.06;97390.88;4963939;29;20054;-79
2022/05/26 09:28:50;;;;;;;0.95;0.68;;;;;;;19.16;47.96;97385.75;4964296;29;20062;-77
2022/05/26 09:31:31;;;;;;;1.95;0.55;;;;;;;19.21;47.95;97391.19;4963597;29;20422;-78
2022/05/26 09:34:01;;;;;;;0.88;0.40;;;;;;;19.27;47.71;97379.75;4964437;28;20054;-78
2022/05/26 09:36:31;;;;;;;3.35;0.40;;;;;;;19.32;48.16;97381.72;4964144;29;20051;-78
2022/05/26 09:38:59;;;;;;;2.20;0.50;;;;;;;19.40;48.11;97383.31;4964245;29;20110;-77
2022/05/26 09:41:28;;;;;;;1.27;0.30;;;;;;;19.45;47.25;97388.72;4964154;29;20339;-78
2022/05/26 09:43:59;;;;;;;0.40;0.20;;;;;;;19.47;46.93;97389.31;4963702;28;20043;-77
2022/05/26 09:46:28;;;;;;;0.77;0.32;;;;;;;19.47;46.67;97394.63;4967548;29;20079;-80
2022/05/26 09:49:00;;;;;;;1.98;0.28;;;;;;;19.46;46.64;97396.47;4969240;29;20055;-81
2022/05/26 09:51:34;;;;;;;0.40;0.20;;;;;;;19.45;47.02;97394.03;4970134;29;20071;-78
2022/05/26 09:54:21;;;;;;;6.40;0.73;;;;;;;19.42;47.20;97395.28;4968548;28;20075;-77
2022/05/26 09:56:50;;;;;;;0.60;0.28;;;;;;;19.40;46.87;97399.19;4967507;29;20080;-78
2022/05/26 09:59:26;;;;;;;0.63;0.20;;;;;;;19.34;46.69;97400.84;4967133;28;20142;-77
2022/05/26 10:02:03;;;;;;;2.17;0.30;;;;;;;19.28;47.59;97402.50;4967640;29;20139;-78
2022/05/26 10:04:56;;;;;;;1.55;0.32;;;;;;;19.23;47.48;97406.84;4967080;29;20420;-79
2022/05/26 10:07:36;;;;;;;1.15;0.38;;;;;;;19.19;47.27;97406.47;4965197;29;20049;-79
2022/05/26 10:10:15;;;;;;;0.20;0.20;;;;;;;19.15;47.21;97407.91;4965471;29;20061;-78
2022/05/26 10:12:54;;;;;;;0.93;0.50;;;;;;;19.11;47.81;97399.63;4965982;28;20081;-78
2022/05/26 10:15:31;;;;;;;6.90;3.42;;;;;;;19.13;48.02;97402.88;4965880;29;20061;-77
2022/05/26 10:18:15;;;;;;;4.55;3.20;;;;;;;19.16;48.10;97404.25;4964552;29;20142;-79
2022/05/26 10:20:49;;;;;;;16.33;9.20;;;;;;;19.20;47.41;97400.16;4964952;29;20142;-78
2022/05/26 10:24:13;;;;;;;28.17;17.55;;;;;;;19.24;47.50;97396.06;4964074;28;20057;-81
2022/05/26 10:26:49;;;;;;;9.98;5.20;;;;;;;19.30;47.84;97407.59;4871492;29;20052;-77
2022/05/26 10:29:33;;;;;;;4.72;3.08;;;;;;;19.35;47.64;97397.19;4957740;28;20052;-80
2022/05/26 10:32:15;;;;;;;4.82;1.50;;;;;;;19.40;48.62;97402.63;4967458;29;20430;-78
2022/05/26 10:35:02;;;;;;;1.88;1.30;;;;;;;19.42;47.65;97405.06;4966900;29;20059;-79
2022/05/26 10:37:44;;;;;;;0.90;0.45;;;;;;;19.42;47.96;97403.22;4976748;28;20055;-80
2022/05/26 10:40:25;;;;;;;2.35;1.15;;;;;;;19.43;47.91;97409.31;4978711;29;20086;-79
2022/05/26 10:42:58;;;;;;;0.65;0.40;;;;;;;19.42;47.03;97407.69;4974426;28;20075;-78
2022/05/26 10:45:34;;;;;;;0.80;0.50;;;;;;;19.42;46.83;97405.88;4972795;29;20061;-79
2022/05/26 10:48:08;;;;;;;1.73;0.50;;;;;;;19.44;46.83;97406.44;4971706;29;20130;-78
2022/05/26 10:50:40;;;;;;;0.90;0.50;;;;;;;19.46;47.24;97408.88;4973095;29;20035;-80
2022/05/26 10:53:15;;;;;;;0.68;0.40;;;;;;;19.49;46.69;97403.16;4972077;28;20085;-79
2022/05/26 10:55:50;;;;;;;0.70;0.20;;;;;;;19.48;46.43;97407.63;4972222;29;20078;-80
2022/05/26 10:58:21;;;;;;;2.05;0.43;;;;;;;19.47;46.42;97400.72;4971013;29;20047;-79
2022/05/26 11:00:55;;;;;;;0.52;0.20;;;;;;;19.47;45.60;97407.84;4971512;29;20055;-77
2022/05/26 11:03:30;;;;;;;1.05;0.40;;;;;;;19.46;45.91;97403.56;4970470;28;20151;-77
2022/05/26 11:06:03;;;;;;;1.33;0.30;;;;;;;19.45;45.65;97408.06;4969880;29;20051;-77
2022/05/26 11:08:38;;;;;;;1.45;0.30;;;;;;;19.45;45.57;97401.97;4971287;29;20490;-82
2022/05/26 11:11:13;;;;;;;0.70;0.30;;;;;;;19.44;45.70;97395.88;4970214;29;20051;-82
2022/05/26 11:13:55;;;;;;;1.02;0.60;;;;;;;19.47;45.83;97397.25;4969066;28;20074;-78
2022/05/26 11:19:36;;;;;;;0.75;0.40;;;;;;;19.50;46.42;97399.47;4927413;29;20115;-79
2022/05/26 11:22:05;;;;;;;1.85;0.63;;;;;;;19.52;46.54;97408.78;4961843;28;20167;-78
2022/05/26 11:24:33;;;;;;;1.10;0.30;;;;;;;19.55;46.21;97410.22;4969120;28;20110;-78
2022/05/26 11:27:06;;;;;;;0.50;0.20;;;;;;;19.55;45.94;97404.94;4969067;29;20055;-80
2022/05/26 11:29:38;;;;;;;1.10;0.40;;;;;;;19.50;45.60;97405.59;4968329;29;20051;-77
2022/05/26 11:38:02;;;;;;;1.95;0.30;;;;;;;19.44;46.52;97410.91;4970753;28;20043;-79
2022/05/26 11:40:36;;;;;;;1.25;0.30;;;;;;;19.42;46.66;97418.28;4970599;29;20423;-78
2022/05/26 11:43:07;;;;;;;0.75;0.22;;;;;;;19.41;46.54;97421.94;4971100;28;20107;-79
2022/05/26 11:45:38;;;;;;;0.65;0.22;;;;;;;19.39;46.77;97414.22;4969258;29;20051;-78
2022/05/26 11:48:28;;;;;;;0.93;0.30;;;;;;;19.37;46.46;97410.97;4970798;29;20049;-79
2022/05/26 11:51:25;;;;;;;1.33;0.38;;;;;;;19.34;45.97;97411.44;4970645;29;20575;-79
2022/05/26 11:53:52;;;;;;;0.77;0.30;;;;;;;19.32;46.66;97414.28;4973135;28;20062;-79
2022/05/26 11:56:44;;;;;;;0.47;0.25;;;;;;;19.30;45.87;97413.69;4972012;29;20061;-79
2022/05/26 11:59:45;;;;;;;1.55;0.30;;;;;;;19.25;45.73;97413.53;4969790;29;20055;-77
2022/05/26 12:02:29;;;;;;;0.45;0.20;;;;;;;19.23;46.41;97415.59;4969682;28;20146;-79
2022/05/26 12:04:56;;;;;;;2.45;1.40;;;;;;;19.21;46.08;97417.63;4967029;29;20055;-79
2022/05/26 12:07:41;;;;;;;0.73;0.57;;;;;;;19.21;46.17;97411.53;4967820;29;20059;-77
2022/05/26 12:10:21;;;;;;;0.30;0.20;;;;;;;19.22;45.65;97407.88;4967574;29;20086;-78
2022/05/26 12:12:50;;;;;;;2.25;0.40;;;;;;;19.23;45.81;97412.94;4967776;28;20107;-79
2022/05/26 12:15:21;;;;;;;2.38;0.40;;;;;;;19.25;45.62;97416.19;4966830;29;20051;-80
2022/05/26 12:17:51;;;;;;;0.87;0.20;;;;;;;19.25;45.65;97413.53;4966043;29;20048;-79
2022/05/26 12:20:33;;;;;;;2.03;0.50;;;;;;;19.28;46.09;97412.28;4967172;29;20360;-79
2022/05/26 12:23:19;;;;;;;0.57;0.20;;;;;;;19.30;46.14;97408.41;4967030;28;20086;-79
2022/05/26 12:25:47;;;;;;;0.98;0.30;;;;;;;19.32;45.94;97403.69;4965627;29;20048;-78
2022/05/26 12:28:29;;;;;;;0.73;0.38;;;;;;;19.40;46.25;97396.53;4966052;29;20047;-77
2022/05/26 12:31:07;;;;;;;0.80;0.40;;;;;;;19.44;45.58;97395.03;4965111;29;20146;-78
2022/05/26 12:34:08;;;;;;;1.25;0.40;;;;;;;19.49;45.14;97396.00;4966649;28;20058;-79